Time;durP1;ratioP1;P1;durP2;ratioP2;P2;SDS_P1;SDS_P2;PMS_P1;PMS_P2;Temp;Humidity;BMP_temperature;BMP_pressure;BME280_temperature;BME280_humidity;BME280_pressure;Samples;Min_cycle;Max_cycle;Signal;HPM_P1;HPM_P2
2021/03/24 00:01:00;;;;;;;;;3.50;3.50;;;;;-1.67;99.25;99722.95;477698;112;374076;-55
2021/03/24 00:02:05;;;;;;;;;2.40;1.90;;;;;-1.66;99.17;99724.63;478269;113;373846;-60
2021/03/24 00:03:11;;;;;;;;;2.30;1.40;;;;;-1.66;99.09;99727.19;474593;113;372847;-56
2021/03/24 00:04:17;;;;;;;;;4.20;2.60;;;;;-1.68;99.03;99725.59;478231;113;373684;-58
2021/03/24 00:05:23;;;;;;;;;3.30;2.20;;;;;-1.68;99.03;99725.59;479363;113;374207;-59
2021/03/24 00:06:27;;;;;;;;;2.70;2.40;;;;;-1.69;98.99;99724.75;478298;113;381124;-59
2021/03/24 00:07:32;;;;;;;;;4.30;3.20;;;;;-1.70;98.96;99722.25;480791;112;374069;-56
2021/03/24 00:08:37;;;;;;;;;2.80;2.80;;;;;-1.73;99.04;99715.50;476797;113;373929;-59
2021/03/24 00:09:41;;;;;;;;;3.30;2.90;;;;;-1.78;98.99;99732.03;477387;111;373200;-55
2021/03/24 00:10:46;;;;;;;;;0.50;0.50;;;;;-1.78;98.99;99732.03;469915;115;371982;-58
2021/03/24 00:11:50;;;;;;;;;2.00;1.00;;;;;-1.78;98.88;99727.72;480201;113;374012;-60
2021/03/24 00:12:55;;;;;;;;;1.20;0.70;;;;;-1.74;99.04;99725.85;482001;112;373279;-56
2021/03/24 00:13:59;;;;;;;;;5.00;3.00;;;;;-1.77;98.90;99729.39;477550;113;373320;-59
2021/03/24 00:15:05;;;;;;;;;1.90;0.80;;;;;-1.81;99.23;99737.27;477888;113;372506;-58
2021/03/24 00:16:10;;;;;;;;;1.70;1.70;;;;;-1.81;99.23;99737.27;487494;111;378384;-54
2021/03/24 00:17:15;;;;;;;;;4.20;3.00;;;;;-1.77;99.17;99729.39;488296;111;375008;-57
2021/03/24 00:18:20;;;;;;;;;4.40;2.60;;;;;-1.80;98.96;99737.23;489002;111;380786;-59
2021/03/24 00:19:25;;;;;;;;;3.90;3.00;;;;;-1.81;99.20;99737.27;487143;111;377034;-56
2021/03/24 00:20:32;;;;;;;;;5.00;3.50;;;;;-1.78;99.32;99732.03;484931;111;374437;-54
2021/03/24 00:21:37;;;;;;;;;5.40;3.10;;;;;-1.85;99.01;99741.70;490282;110;374339;-61
2021/03/24 00:22:41;;;;;;;;;0.36;0.00;;;;;-1.82;99.21;99736.44;487177;110;374061;-60
2021/03/24 00:23:46;;;;;;;;;3.90;3.70;;;;;-1.82;99.21;99736.44;491955;110;374509;-59
2021/03/24 00:24:50;;;;;;;;;3.20;1.00;;;;;-1.81;99.06;99735.53;490956;110;372446;-60
2021/03/24 00:25:55;;;;;;;;;6.00;4.40;;;;;-1.84;99.23;99733.93;491070;110;372923;-57
2021/03/24 00:26:59;;;;;;;;;1.30;1.30;;;;;-1.86;99.23;99737.46;488834;110;372505;-54
2021/03/24 00:28:05;;;;;;;;;1.90;1.90;;;;;-1.84;99.36;99741.64;490437;110;373422;-59
2021/03/24 00:29:11;;;;;;;;;3.90;3.10;;;;;-1.82;99.36;99744.14;486229;110;386114;-56
2021/03/24 00:30:17;;;;;;;;;3.50;2.50;;;;;-1.81;99.26;99742.41;488789;110;382729;-58
2021/03/24 00:31:22;;;;;;;;;3.00;2.50;;;;;-1.82;99.33;99746.71;489570;110;373939;-60
2021/03/24 00:32:27;;;;;;;;;4.20;1.50;;;;;-1.82;99.14;99741.58;489259;110;372187;-54
2021/03/24 00:33:32;;;;;;;;;3.90;3.00;;;;;-1.82;99.14;99741.58;491174;110;374962;-56
2021/03/24 00:34:37;;;;;;;;;0.78;0.78;;;;;-1.82;99.22;99740.73;489633;110;372502;-59
2021/03/24 00:35:42;;;;;;;;;4.30;2.90;;;;;-1.82;99.22;99740.73;491241;110;383008;-54
2021/03/24 00:36:47;;;;;;;;;3.80;3.20;;;;;-1.95;99.30;99722.44;486749;112;374380;-61
2021/03/24 00:37:51;;;;;;;;;3.80;2.80;;;;;-1.84;99.34;99744.20;488778;110;381104;-59
2021/03/24 00:38:56;;;;;;;;;4.30;3.30;;;;;-1.84;99.41;99736.50;480210;112;374196;-61
2021/03/24 00:40:00;;;;;;;;;5.20;3.10;;;;;-1.86;99.18;99745.17;481885;112;375003;-56
2021/03/24 00:41:06;;;;;;;;;4.80;2.90;;;;;-1.86;99.18;99745.17;488217;111;381127;-64
2021/03/24 00:42:11;;;;;;;;;4.60;2.50;;;;;-1.86;99.18;99750.31;484441;111;373277;-59
2021/03/24 00:43:15;;;;;;;;;3.90;3.60;;;;;-1.86;99.24;99748.58;486824;111;374413;-56
2021/03/24 00:44:20;;;;;;;;;6.50;3.60;;;;;-1.86;99.24;99748.58;486904;111;375409;-62
2021/03/24 00:45:24;;;;;;;;;3.40;2.50;;;;;-1.90;99.42;99751.34;476641;113;374139;-60
2021/03/24 00:46:29;;;;;;;;;3.40;2.70;;;;;-1.94;99.42;99752.37;489690;111;372435;-59
2021/03/24 00:47:34;;;;;;;;;7.20;2.90;;;;;-1.88;99.38;99746.97;488787;111;374968;-61
2021/03/24 00:48:39;;;;;;;;;6.00;3.10;;;;;-1.88;99.38;99746.97;484378;111;373450;-58
2021/03/24 00:49:43;;;;;;;;;4.70;3.20;;;;;-1.85;99.40;99751.98;488706;110;374668;-57
2021/03/24 00:50:51;;;;;;;;;4.00;3.30;;;;;-1.86;99.35;99752.88;470232;114;374003;-58
2021/03/24 00:51:56;;;;;;;;;0.90;0.90;;;;;-1.86;99.27;99746.01;472254;114;373225;-55
2021/03/24 00:53:00;;;;;;;;;4.40;3.50;;;;;-1.85;99.32;99750.25;472565;114;373150;-62
2021/03/24 00:54:05;;;;;;;;;3.10;3.10;;;;;-1.85;99.32;99750.25;473042;114;375121;-60
2021/03/24 00:55:12;;;;;;;;;2.80;2.80;;;;;-1.85;98.99;99755.39;472981;114;373895;-59
2021/03/24 00:56:20;;;;;;;;;3.40;2.80;;;;;-1.91;99.10;99755.64;469616;114;373920;-60
2021/03/24 00:57:25;;;;;;;;;6.00;3.30;;;;;-1.87;99.15;99764.06;473469;114;373433;-59
2021/03/24 00:58:29;;;;;;;;;2.80;2.80;;;;;-1.84;99.18;99756.22;476379;114;374974;-56
2021/03/24 00:59:33;;;;;;;;;4.70;3.20;;;;;-1.86;99.25;99755.45;472495;114;375378;-59
2021/03/24 01:00:38;;;;;;;;;4.70;2.60;;;;;-1.94;99.49;99765.22;476677;114;374078;-57
2021/03/24 01:01:43;;;;;;;;;3.60;3.60;;;;;-1.94;99.49;99765.22;471788;114;381089;-56
2021/03/24 01:02:47;;;;;;;;;3.80;3.10;;;;;-1.90;99.25;99761.62;474884;114;376465;-58
2021/03/24 01:03:52;;;;;;;;;3.10;3.10;;;;;-1.88;99.20;99765.80;472688;114;373142;-56
2021/03/24 01:04:56;;;;;;;;;0.80;0.70;;;;;-1.88;99.12;99767.53;473880;114;373481;-55
2021/03/24 01:06:00;;;;;;;;;3.70;2.80;;;;;-1.88;99.12;99767.53;472120;114;374521;-59
2021/03/24 01:07:06;;;;;;;;;3.30;3.30;;;;;-1.87;99.33;99764.06;474223;114;374384;-52
2021/03/24 01:08:12;;;;;;;;;4.40;2.40;;;;;-1.90;99.49;99772.73;472182;114;374633;-57
2021/03/24 01:09:16;;;;;;;;;2.80;1.00;;;;;-1.89;99.35;99773.57;471340;114;371887;-52
2021/03/24 01:10:22;;;;;;;;;7.10;4.30;;;;;-1.88;99.22;99773.51;473370;114;381194;-59
2021/03/24 01:11:26;;;;;;;;;2.80;2.80;;;;;-1.89;99.21;99784.69;472228;114;374595;-57
2021/03/24 01:12:30;;;;;;;;;5.00;2.50;;;;;-1.87;99.16;99779.48;476074;114;380925;-61
2021/03/24 01:13:35;;;;;;;;;2.50;2.30;;;;;-1.87;99.16;99779.48;472395;114;372855;-56
2021/03/24 01:14:39;;;;;;;;;3.50;2.30;;;;;-1.91;99.09;99780.51;471774;114;373169;-56
2021/03/24 01:15:43;;;;;;;;;3.70;2.80;;;;;-1.89;99.07;99782.12;474308;114;374684;-55
2021/03/24 01:16:48;;;;;;;;;2.70;2.70;;;;;-1.89;99.10;99784.69;490699;110;374917;-63
2021/03/24 01:17:53;;;;;;;;;3.30;2.90;;;;;-1.89;99.10;99784.69;490334;110;382028;-55
2021/03/24 01:18:58;;;;;;;;;3.30;2.40;;;;;-1.85;99.11;99786.23;493167;110;374809;-56
2021/03/24 01:20:02;;;;;;;;;1.70;1.70;;;;;-1.89;99.33;99784.69;493487;110;372589;-60
2021/03/24 01:21:08;;;;;;;;;3.50;2.30;;;;;-1.89;99.33;99784.69;472911;114;380409;-57
2021/03/24 01:22:12;;;;;;;;;2.40;0.80;;;;;-1.86;99.00;99786.30;474933;113;372834;-62
2021/03/24 01:23:16;;;;;;;;;2.40;1.70;;;;;-1.82;99.00;99787.84;482075;112;374110;-56
2021/03/24 01:24:21;;;;;;;;;4.30;3.20;;;;;-1.81;98.88;99786.94;481274;112;374862;-59
2021/03/24 01:25:25;;;;;;;;;3.30;2.90;;;;;-1.82;99.04;99792.98;477404;113;375216;-60
2021/03/24 01:26:30;;;;;;;;;3.90;2.50;;;;;-1.82;99.04;99792.98;479440;112;374240;-55
2021/03/24 01:27:34;;;;;;;;;4.50;3.40;;;;;-1.81;98.88;99789.51;478795;112;373238;-57
2021/03/24 01:28:38;;;;;;;;;2.90;1.50;;;;;-1.84;98.85;99790.47;480225;113;380005;-60
2021/03/24 01:29:42;;;;;;;;;1.20;0.20;;;;;-1.81;98.54;99799.79;481027;112;372330;-55
2021/03/24 01:30:48;;;;;;;;;3.00;2.50;;;;;-1.79;98.49;99795.45;479548;112;374849;-57
2021/03/24 01:31:53;;;;;;;;;2.00;2.00;;;;;-1.81;98.59;99799.79;477887;113;373811;-56
2021/03/24 01:32:57;;;;;;;;;5.20;3.70;;;;;-1.81;98.59;99799.79;480292;112;372838;-56
2021/03/24 01:34:02;;;;;;;;;3.60;1.70;;;;;-1.75;98.70;99794.42;481734;112;374066;-60
2021/03/24 01:35:09;;;;;;;;;3.30;2.50;;;;;-1.75;98.70;99794.42;479826;113;374084;-58
2021/03/24 01:36:15;;;;;;;;;2.90;1.90;;;;;-1.73;98.52;99802.07;477412;113;372505;-59
2021/03/24 01:37:19;;;;;;;;;3.60;3.00;;;;;-1.76;98.60;99794.48;481192;112;374823;-59
2021/03/24 01:38:23;;;;;;;;;3.60;3.00;;;;;-1.75;98.65;99788.45;479470;112;373814;-55
2021/03/24 01:39:27;;;;;;;;;4.70;2.90;;;;;-1.72;98.71;99793.45;481625;112;373790;-58
2021/03/24 01:40:36;;;;;;;;;3.80;3.80;;;;;-1.87;98.40;99776.91;479805;113;374666;-58
2021/03/24 01:41:40;;;;;;;;;3.80;1.30;;;;;-1.87;98.40;99776.91;471756;114;373463;-57
2021/03/24 01:42:44;;;;;;;;;1.90;1.90;;;;;-1.73;98.52;99800.34;475387;114;382077;-56
2021/03/24 01:43:48;;;;;;;;;3.10;1.10;;;;;-1.72;98.61;99806.31;478850;113;373467;-60
2021/03/24 01:45:01;;;;;;;;;5.80;2.30;;;;;-1.72;98.61;99806.31;481130;113;373877;-60
2021/03/24 01:46:38;;;;;;;;;5.30;3.20;;;;;-1.75;98.53;99801.30;480771;113;373789;-60
2021/03/24 01:47:43;;;;;;;;;3.60;3.00;;;;;-1.72;98.71;99806.31;480859;113;374020;-56
2021/03/24 01:48:48;;;;;;;;;2.70;2.70;;;;;-1.72;98.71;99806.31;479892;113;375389;-59
2021/03/24 01:49:52;;;;;;;;;0.60;0.00;;;;;-1.70;98.49;99804.52;480372;113;372565;-60
2021/03/24 01:50:56;;;;;;;;;0.60;0.00;;;;;-1.72;98.49;99809.72;480252;113;371520;-59
2021/03/24 01:52:02;;;;;;;;;3.60;2.20;;;;;-1.74;98.74;99806.38;481333;113;374429;-57
2021/03/24 01:53:07;;;;;;;;;4.00;3.30;;;;;-1.72;98.79;99803.74;476451;114;382121;-58
2021/03/24 01:54:14;;;;;;;;;3.70;3.20;;;;;-1.73;98.67;99808.05;475250;114;374080;-56
2021/03/24 01:55:19;;;;;;;;;1.50;1.50;;;;;-1.70;98.66;99797.64;477144;114;371864;-60
2021/03/24 01:56:24;;;;;;;;;4.20;2.90;;;;;-1.68;98.33;99806.12;474716;114;374595;-57
2021/03/24 01:57:28;;;;;;;;;2.00;0.20;;;;;-1.68;98.33;99806.12;478508;113;372582;-60
2021/03/24 01:58:33;;;;;;;;;1.70;1.70;;;;;-1.65;98.27;99807.73;480791;113;372887;-58
2021/03/24 01:59:37;;;;;;;;;3.30;2.50;;;;;-1.65;98.27;99807.73;481229;113;373359;-58
2021/03/24 02:00:44;;;;;;;;;3.40;2.40;;;;;-1.66;98.31;99806.06;475017;114;373290;-56
2021/03/24 02:01:48;;;;;;;;;3.90;2.20;;;;;-1.66;98.50;99806.89;478875;113;371995;-55
2021/03/24 02:02:53;;;;;;;;;5.50;2.80;;;;;-1.69;98.30;99798.47;473883;114;372810;-52
2021/03/24 02:03:57;;;;;;;;;4.50;3.20;;;;;-1.64;98.40;99806.83;479856;113;374587;-56
2021/03/24 02:05:01;;;;;;;;;0.70;0.30;;;;;-1.67;98.34;99809.53;481480;113;378817;-58
2021/03/24 02:06:10;;;;;;;;;2.90;1.70;;;;;-1.63;98.31;99808.50;487230;109;373713;-59
2021/03/24 02:07:15;;;;;;;;;1.50;0.80;;;;;-1.65;98.37;99805.99;492755;109;372340;-58
2021/03/24 02:08:22;;;;;;;;;6.20;2.80;;;;;-1.64;98.24;99809.40;494047;109;380438;-57
2021/03/24 02:09:35;;;;;;;;;3.20;1.40;;;;;-1.63;98.17;99804.19;494259;109;373834;-62
2021/03/24 02:10:42;;;;;;;;;4.40;3.50;;;;;-1.62;98.26;99811.00;495372;109;382008;-60
2021/03/24 02:11:52;;;;;;;;;2.30;2.30;;;;;-1.61;98.22;99807.53;495011;109;373512;-58
2021/03/24 02:12:58;;;;;;;;;4.50;3.50;;;;;-1.61;98.22;99807.53;495885;109;373607;-56
2021/03/24 02:14:08;;;;;;;;;2.80;2.80;;;;;-1.58;98.09;99815.15;494663;109;374758;-59
2021/03/24 02:15:15;;;;;;;;;1.40;1.40;;;;;-1.58;98.08;99819.45;492763;109;372835;-60
2021/03/24 02:16:23;;;;;;;;;3.60;3.00;;;;;-1.58;98.06;99811.74;496086;109;374706;-58
2021/03/24 02:17:28;;;;;;;;;4.80;1.80;;;;;-1.56;98.07;99815.08;494985;109;374640;-56
2021/03/24 02:18:33;;;;;;;;;7.20;2.70;;;;;-1.55;98.08;99804.73;495648;109;380608;-59
2021/03/24 02:19:49;;;;;;;;;2.20;1.30;;;;;-1.52;98.21;99802.94;494120;109;372707;-55
2021/03/24 02:20:55;;;;;;;;;1.90;1.90;;;;;-1.52;98.21;99802.94;491003;110;372478;-60
2021/03/24 02:22:01;;;;;;;;;2.60;1.00;;;;;-1.51;98.07;99813.16;475517;114;379407;-57
2021/03/24 02:23:09;;;;;;;;;5.50;3.00;;;;;-1.51;97.98;99814.89;476320;114;373566;-57
2021/03/24 02:24:44;;;;;;;;;3.90;3.50;;;;;-1.47;97.90;99813.86;473401;114;374499;-60
2021/03/24 02:25:50;;;;;;;;;3.50;2.90;;;;;-1.47;97.90;99813.86;472626;114;373853;-57
2021/03/24 02:27:15;;;;;;;;;6.70;2.90;;;;;-1.44;97.71;99811.99;467068;115;374198;-58
2021/03/24 02:28:19;;;;;;;;;6.20;1.20;;;;;-1.48;97.65;99817.33;454956;119;373758;-57
2021/03/24 02:29:23;;;;;;;;;4.00;4.00;;;;;-1.43;97.86;99820.55;463866;116;374535;-59
2021/03/24 02:30:29;;;;;;;;;2.50;1.20;;;;;-1.39;97.91;99817.80;457825;117;373609;-58
2021/03/24 02:31:33;;;;;;;;;2.50;2.50;;;;;-1.37;97.61;99817.73;477043;114;374764;-56
2021/03/24 02:32:40;;;;;;;;;5.50;3.60;;;;;-1.41;97.59;99824.72;478031;114;374146;-61
2021/03/24 02:33:45;;;;;;;;;4.80;3.10;;;;;-1.41;97.59;99824.72;471312;113;374589;-58
2021/03/24 02:34:49;;;;;;;;;5.60;2.60;;;;;-1.36;97.68;99821.98;474924;114;375027;-59
2021/03/24 02:35:54;;;;;;;;;1.40;1.40;;;;;-1.39;97.71;99827.26;477500;114;372670;-56
2021/03/24 02:36:59;;;;;;;;;3.80;2.40;;;;;-1.39;97.71;99827.26;476359;114;373916;-55
2021/03/24 02:38:06;;;;;;;;;4.80;3.00;;;;;-1.36;97.33;99824.55;474804;113;373719;-56
2021/03/24 02:39:12;;;;;;;;;4.20;3.20;;;;;-1.36;97.33;99824.55;472243;114;373568;-59
2021/03/24 02:40:18;;;;;;;;;4.00;3.80;;;;;-1.35;97.53;99831.37;476145;113;373543;-59
2021/03/24 02:41:22;;;;;;;;;4.70;3.60;;;;;-1.34;97.30;99831.30;476991;113;374891;-59
2021/03/24 02:42:26;;;;;;;;;5.00;3.80;;;;;-1.35;97.26;99827.06;472536;114;380984;-55
2021/03/24 02:43:34;;;;;;;;;2.80;2.80;;;;;-1.35;97.26;99827.06;476755;114;374061;-56
2021/03/24 02:44:38;;;;;;;;;4.40;3.30;;;;;-1.30;97.37;99824.29;475940;114;374961;-55
2021/03/24 02:45:44;;;;;;;;;2.10;1.20;;;;;-1.44;97.22;99827.42;478067;114;373581;-59
2021/03/24 02:46:49;;;;;;;;;5.40;2.80;;;;;-1.37;97.42;99833.17;477704;114;374442;-59
2021/03/24 02:47:54;;;;;;;;;6.70;2.70;;;;;-1.37;97.42;99833.17;491077;110;375082;-56
2021/03/24 02:49:01;;;;;;;;;2.90;2.60;;;;;-1.38;97.33;99829.77;492525;110;373702;-58
2021/03/24 02:50:08;;;;;;;;;3.50;2.50;;;;;-1.34;97.33;99839.02;492794;110;379792;-58
2021/03/24 02:51:14;;;;;;;;;5.20;3.40;;;;;-1.34;97.33;99839.02;489082;110;374011;-56
2021/03/24 02:52:20;;;;;;;;;2.80;2.40;;;;;-1.32;97.26;99839.79;475574;113;375313;-58
2021/03/24 02:53:24;;;;;;;;;0.50;0.50;;;;;-1.33;97.28;99829.56;477620;113;371904;-58
2021/03/24 02:54:30;;;;;;;;;3.70;2.90;;;;;-1.42;97.40;99838.48;475109;113;373735;-59
2021/03/24 02:55:35;;;;;;;;;5.20;3.10;;;;;-1.40;97.64;99844.42;476592;114;375192;-57
2021/03/24 02:56:40;;;;;;;;;2.80;2.20;;;;;-1.36;97.62;99835.67;473029;114;372866;-55
2021/03/24 02:57:44;;;;;;;;;3.00;3.00;;;;;-1.35;97.41;99841.66;478830;113;374651;-58
2021/03/24 02:58:50;;;;;;;;;6.60;2.50;;;;;-1.35;97.39;99842.50;476740;113;375842;-55
2021/03/24 02:59:54;;;;;;;;;3.80;3.20;;;;;-1.35;97.39;99842.50;475533;113;372922;-56
2021/03/24 03:00:59;;;;;;;;;1.70;1.70;;;;;-1.31;97.45;99840.63;475968;114;372330;-57
2021/03/24 03:02:07;;;;;;;;;0.40;0.40;;;;;-1.31;97.30;99844.03;478577;113;371643;-59
2021/03/24 03:03:13;;;;;;;;;1.40;1.40;;;;;-1.29;97.41;99838.82;461388;118;373736;-57
2021/03/24 03:04:20;;;;;;;;;5.30;2.80;;;;;-1.30;97.25;99847.44;464226;116;374244;-57
2021/03/24 03:05:27;;;;;;;;;3.80;3.80;;;;;-1.29;97.18;99849.11;467368;116;374512;-54
2021/03/24 03:06:32;;;;;;;;;2.20;0.50;;;;;-1.33;97.14;99848.41;467550;116;372328;-58
2021/03/24 03:07:38;;;;;;;;;3.70;3.70;;;;;-1.28;97.03;99845.64;473945;114;373976;-56
2021/03/24 03:08:45;;;;;;;;;3.70;2.10;;;;;-1.27;97.18;99840.42;473795;114;373370;-55
2021/03/24 03:09:51;;;;;;;;;4.60;2.90;;;;;-1.23;97.13;99844.54;477692;114;377580;-58
2021/03/24 03:10:57;;;;;;;;;4.50;4.00;;;;;-1.27;97.27;99843.00;478980;114;373628;-54
2021/03/24 03:12:05;;;;;;;;;3.90;3.10;;;;;-1.34;97.42;99845.91;492457;110;380506;-54
2021/03/24 03:13:13;;;;;;;;;4.40;3.80;;;;;-1.24;97.38;99850.59;489007;110;373770;-59
2021/03/24 03:14:20;;;;;;;;;1.00;0.00;;;;;-1.24;97.38;99850.59;492906;110;371990;-56
2021/03/24 03:15:26;;;;;;;;;7.20;3.60;;;;;-1.25;97.28;99845.51;490033;110;374828;-58
2021/03/24 03:16:32;;;;;;;;;4.00;3.80;;;;;-1.26;97.07;99838.69;491418;110;372666;-62
2021/03/24 03:17:36;;;;;;;;;2.60;2.00;;;;;-1.26;97.07;99838.69;493019;110;377742;-61
2021/03/24 03:18:42;;;;;;;;;1.90;1.90;;;;;-1.25;97.13;99843.77;486268;111;373713;-59
2021/03/24 03:19:51;;;;;;;;;3.40;2.50;;;;;-1.25;96.74;99841.20;482661;110;374907;-60
2021/03/24 03:20:57;;;;;;;;;2.60;2.60;;;;;-1.25;96.86;99845.51;487163;109;374718;-58
2021/03/24 03:22:03;;;;;;;;;4.70;3.30;;;;;-1.23;96.97;99847.11;489792;110;374489;-56
2021/03/24 03:23:09;;;;;;;;;5.20;4.00;;;;;-1.23;96.97;99847.11;491922;110;374742;-53
2021/03/24 03:25:07;;;;;;;;;3.00;3.00;;;;;-1.08;97.25;99852.52;505249;106;408322;-56
2021/03/24 03:26:13;;;;;;;;;3.30;3.30;;;;;-1.16;97.12;99849.45;494292;109;373295;-56
2021/03/24 03:27:18;;;;;;;;;2.60;2.10;;;;;-1.16;97.07;99860.58;498501;109;373768;-59
2021/03/24 03:28:22;;;;;;;;;3.30;1.70;;;;;-1.19;97.30;99850.42;495898;109;372437;-59
2021/03/24 03:29:26;;;;;;;;;4.00;3.10;;;;;-1.14;97.19;99863.09;496044;109;374580;-57
2021/03/24 03:30:32;;;;;;;;;6.40;2.10;;;;;-1.14;97.19;99863.09;497623;109;373438;-59
2021/03/24 03:31:37;;;;;;;;;2.30;2.30;;;;;-1.14;97.23;99863.09;498214;109;373076;-58
2021/03/24 03:32:41;;;;;;;;;2.50;2.50;;;;;-1.08;96.87;99855.94;496769;109;373094;-58
2021/03/24 03:33:48;;;;;;;;;1.80;1.80;;;;;-1.08;96.87;99855.94;496325;109;373528;-55
2021/03/24 03:34:55;;;;;;;;;2.90;2.30;;;;;-1.04;96.82;99852.33;495501;109;374582;-62
2021/03/24 03:35:59;;;;;;;;;5.60;3.40;;;;;-1.04;96.82;99852.33;497870;109;374505;-64
2021/03/24 03:37:04;;;;;;;;;4.20;2.50;;;;;-1.15;96.88;99867.40;497828;109;375162;-56
2021/03/24 03:38:11;;;;;;;;;3.60;2.60;;;;;-1.15;96.88;99867.40;493149;109;377865;-61
2021/03/24 03:39:19;;;;;;;;;3.40;2.50;;;;;-1.11;96.76;99862.95;497824;109;373259;-59
2021/03/24 03:40:25;;;;;;;;;2.70;1.40;;;;;-1.09;96.94;99867.13;495603;109;372755;-60
2021/03/24 03:41:29;;;;;;;;;5.20;3.40;;;;;-1.10;96.84;99860.31;498350;109;372478;-57
2021/03/24 03:42:33;;;;;;;;;6.30;2.80;;;;;-1.08;96.85;99862.82;498118;109;375359;-60
2021/03/24 03:43:39;;;;;;;;;1.30;1.30;;;;;-1.06;96.79;99866.16;498901;109;372297;-56
2021/03/24 03:44:43;;;;;;;;;0.70;0.50;;;;;-1.07;96.77;99857.61;492546;109;372284;-63
2021/03/24 03:45:48;;;;;;;;;3.50;3.50;;;;;-1.17;96.97;99869.20;498417;109;379146;-61
2021/03/24 03:46:53;;;;;;;;;0.40;0.20;;;;;-1.11;96.94;99863.79;497869;109;370343;-58
2021/03/24 03:47:58;;;;;;;;;2.80;1.20;;;;;-1.22;96.88;99878.82;497705;109;372942;-58
2021/03/24 03:49:02;;;;;;;;;4.40;4.00;;;;;-1.15;96.82;99866.56;498425;109;379910;-59
2021/03/24 03:50:08;;;;;;;;;2.00;2.00;;;;;-1.15;96.82;99866.56;494990;109;375006;-60
2021/03/24 03:51:16;;;;;;;;;3.90;3.30;;;;;-1.19;97.17;99860.71;494463;109;374653;-58
2021/03/24 03:52:40;;;;;;;;;3.60;3.00;;;;;-1.18;97.13;99861.55;498920;108;374402;-55
2021/03/24 03:53:47;;;;;;;;;3.10;1.80;;;;;-1.31;97.48;99871.49;496211;109;374874;-61
2021/03/24 03:54:54;;;;;;;;;2.40;2.00;;;;;-1.31;97.48;99871.49;496080;109;374058;-61
2021/03/24 03:56:01;;;;;;;;;3.90;2.20;;;;;-1.24;97.52;99867.77;497846;109;374213;-60
2021/03/24 03:57:08;;;;;;;;;2.50;2.50;;;;;-1.24;97.42;99868.59;493105;109;375534;-56
2021/03/24 03:58:18;;;;;;;;;4.60;1.20;;;;;-1.20;97.11;99871.04;491162;109;374213;-59
2021/03/24 03:59:23;;;;;;;;;4.00;2.00;;;;;-1.29;97.59;99882.55;494086;109;374633;-58
2021/03/24 04:00:29;;;;;;;;;3.10;3.10;;;;;-1.25;97.35;99877.22;497358;109;373902;-58
2021/03/24 04:01:36;;;;;;;;;2.90;2.80;;;;;-1.23;97.48;99874.58;498185;109;374216;-60
2021/03/24 04:02:43;;;;;;;;;1.00;1.00;;;;;-1.23;97.48;99874.58;493157;109;372479;-57
2021/03/24 04:03:52;;;;;;;;;2.70;2.70;;;;;-1.33;97.95;99875.87;497632;109;373989;-62
2021/03/24 04:04:58;;;;;;;;;4.50;4.00;;;;;-1.30;97.91;99881.72;497539;109;374154;-57
2021/03/24 04:06:04;;;;;;;;;5.90;4.80;;;;;-1.31;97.83;99894.65;498166;109;375030;-60
2021/03/24 04:07:12;;;;;;;;;2.60;1.90;;;;;-1.30;97.93;99886.03;497939;109;373248;-59
2021/03/24 04:08:18;;;;;;;;;5.20;3.40;;;;;-1.30;97.93;99886.03;497430;109;372950;-56
2021/03/24 04:09:22;;;;;;;;;1.80;1.30;;;;;-1.27;97.51;99884.16;495836;109;374331;-60
2021/03/24 04:10:28;;;;;;;;;6.40;3.70;;;;;-1.26;97.62;99890.14;498740;109;375276;-61
2021/03/24 04:11:33;;;;;;;;;4.30;4.30;;;;;-1.29;97.50;99885.96;498186;109;375302;-56
2021/03/24 04:12:38;;;;;;;;;3.00;2.50;;;;;-1.27;97.49;99891.88;498205;109;376830;-56
2021/03/24 04:13:44;;;;;;;;;5.00;2.40;;;;;-1.28;97.39;99894.52;496098;110;374325;-58
2021/03/24 04:14:48;;;;;;;;;3.40;3.40;;;;;-1.28;97.39;99894.52;498240;109;374231;-60
2021/03/24 04:15:53;;;;;;;;;2.50;2.50;;;;;-1.23;97.36;99892.59;497824;109;374305;-61
2021/03/24 04:16:57;;;;;;;;;6.40;4.50;;;;;-1.23;97.38;99890.84;498103;109;373986;-59
2021/03/24 04:18:05;;;;;;;;;2.20;1.00;;;;;-1.27;97.23;99896.19;497630;109;380652;-56
2021/03/24 04:19:10;;;;;;;;;3.30;3.30;;;;;-1.27;97.23;99896.19;493566;109;376188;-60
2021/03/24 04:21:10;;;;;;;;;4.10;3.90;;;;;-1.09;97.32;99899.75;508996;106;411463;-60
2021/03/24 04:22:15;;;;;;;;;8.50;1.10;;;;;-1.23;97.33;99903.72;499005;108;373869;-60
2021/03/24 04:23:22;;;;;;;;;3.90;3.70;;;;;-1.28;97.15;99908.22;499098;108;373885;-61
2021/03/24 04:24:27;;;;;;;;;7.70;3.70;;;;;-1.24;97.35;99901.20;496416;108;374669;-58
2021/03/24 04:25:34;;;;;;;;;6.40;3.70;;;;;-1.22;97.36;99902.81;495593;108;374177;-59
2021/03/24 04:26:40;;;;;;;;;4.80;3.00;;;;;-1.23;97.50;99901.14;490690;109;377890;-56
2021/03/24 04:27:46;;;;;;;;;4.30;3.70;;;;;-1.26;97.48;99915.87;496504;108;376746;-58
2021/03/24 04:28:51;;;;;;;;;4.40;4.40;;;;;-1.26;97.48;99915.87;498839;108;379352;-62
2021/03/24 04:29:57;;;;;;;;;6.30;3.90;;;;;-1.29;97.82;99906.55;494586;109;373784;-58
2021/03/24 04:31:03;;;;;;;;;2.00;2.00;;;;;-1.28;97.65;99904.80;498303;108;373619;-60
2021/03/24 04:32:09;;;;;;;;;4.80;3.80;;;;;-1.27;97.52;99911.63;495691;109;374889;-59
2021/03/24 04:33:13;;;;;;;;;3.27;2.73;;;;;-1.27;97.36;99907.31;490223;109;379771;-57
2021/03/24 04:34:18;;;;;;;;;5.70;5.30;;;;;-1.28;97.16;99912.53;494520;109;375014;-61
2021/03/24 04:35:23;;;;;;;;;5.70;4.30;;;;;-1.30;97.20;99916.90;498167;108;374222;-59
2021/03/24 04:36:30;;;;;;;;;5.00;4.30;;;;;-1.30;97.20;99916.90;493033;109;373181;-56
2021/03/24 04:37:36;;;;;;;;;3.60;3.00;;;;;-1.32;97.56;99910.98;492280;109;374846;-58
2021/03/24 04:39:12;;;;;;;;;5.00;4.40;;;;;-1.27;97.44;99920.18;493290;110;379831;-57
2021/03/24 04:40:20;;;;;;;;;6.40;4.50;;;;;-1.24;97.33;99924.36;492696;109;374467;-60
2021/03/24 04:41:25;;;;;;;;;4.40;2.40;;;;;-1.24;97.09;99919.22;493347;108;373087;-55
2021/03/24 04:42:32;;;;;;;;;5.20;1.50;;;;;-1.25;97.02;99927.84;493860;108;377691;-57
2021/03/24 04:43:37;;;;;;;;;4.10;3.30;;;;;-1.25;97.02;99927.84;495908;108;374821;-57
2021/03/24 04:44:41;;;;;;;;;5.50;4.20;;;;;-1.27;96.97;99929.63;492724;109;373647;-58
2021/03/24 04:45:46;;;;;;;;;3.50;2.80;;;;;-1.33;97.33;99925.58;499905;108;374377;-60
2021/03/24 04:46:52;;;;;;;;;4.70;2.80;;;;;-1.28;97.13;99922.81;497897;108;381339;-57
2021/03/24 04:47:56;;;;;;;;;7.40;3.90;;;;;-1.28;97.13;99922.81;497290;108;373775;-56
2021/03/24 04:49:03;;;;;;;;;2.40;1.60;;;;;-1.30;97.09;99940.89;492999;109;373084;-57
2021/03/24 04:50:11;;;;;;;;;3.50;3.50;;;;;-1.30;97.09;99940.89;495707;108;374616;-56
2021/03/24 04:51:18;;;;;;;;;5.50;3.40;;;;;-1.30;97.04;99937.48;494171;109;375113;-56
2021/03/24 04:52:22;;;;;;;;;4.50;4.00;;;;;-1.24;96.95;99937.22;495877;108;373614;-59
2021/03/24 04:53:28;;;;;;;;;5.40;4.90;;;;;-1.19;96.90;99942.21;498079;108;377433;-56
2021/03/24 04:54:33;;;;;;;;;5.20;4.00;;;;;-1.14;96.94;99943.69;498293;108;375289;-62
2021/03/24 04:55:38;;;;;;;;;3.50;3.10;;;;;-1.14;96.64;99938.55;493892;109;373941;-53
2021/03/24 04:56:44;;;;;;;;;4.40;3.90;;;;;-2.24;96.43;99756.97;493483;109;374985;-57
2021/03/24 04:57:48;;;;;;;;;4.20;3.60;;;;;-1.13;96.62;99934.23;495301;108;373793;-54
2021/03/24 04:58:53;;;;;;;;;4.50;3.80;;;;;-1.08;96.60;99929.73;495341;108;373384;-61
2021/03/24 05:00:00;;;;;;;;;3.20;2.80;;;;;-1.10;96.08;99934.10;494701;109;374328;-59
2021/03/24 05:01:10;;;;;;;;;2.60;2.60;;;;;-1.16;96.23;99930.05;479691;112;373759;-61
2021/03/24 05:02:15;;;;;;;;;2.40;2.30;;;;;-1.09;96.15;99930.63;476038;113;373466;-55
2021/03/24 05:03:22;;;;;;;;;4.10;2.80;;;;;-1.07;96.11;99929.66;479713;112;373111;-56
2021/03/24 05:04:29;;;;;;;;;6.00;3.60;;;;;-1.04;95.93;99923.55;479722;112;373747;-53
2021/03/24 05:05:33;;;;;;;;;6.40;5.00;;;;;-0.98;95.83;99936.19;474111;112;378666;-59
2021/03/24 05:06:38;;;;;;;;;6.60;4.50;;;;;-0.95;95.50;99925.77;480901;112;374250;-61
2021/03/24 05:07:43;;;;;;;;;5.10;3.70;;;;;-0.97;95.26;99936.12;477439;113;377914;-58
2021/03/24 05:08:47;;;;;;;;;4.30;4.20;;;;;-0.97;95.26;99936.12;480955;112;377589;-60